Time;durP1;ratioP1;P1;durP2;ratioP2;P2;SDS_P1;SDS_P2;PMS_P1;PMS_P2;Temp;Humidity;BMP_temperature;BMP_pressure;BME280_temperature;BME280_humidity;BME280_pressure;Samples;Min_cycle;Max_cycle;Signal;HPM_P1;HPM_P2
2023/09/06 00:02:10;;;;;;;7.95;4.75;;;;;;;22.23;82.82;101741.13;5052195;28;20080;-65
2023/09/06 00:04:58;;;;;;;7.03;4.05;;;;;;;22.20;82.88;101736.16;5052465;28;20156;-65
2023/09/06 00:07:46;;;;;;;9.27;4.15;;;;;;;22.16;83.29;101735.19;5052766;28;20041;-65
2023/09/06 00:10:38;;;;;;;7.40;4.10;;;;;;;22.12;83.42;101730.28;5052904;28;20037;-64
2023/09/06 00:13:26;;;;;;;9.10;4.20;;;;;;;22.12;83.28;101733.03;5050210;28;20045;-65
2023/09/06 00:16:15;;;;;;;6.60;3.88;;;;;;;22.08;83.59;101729.31;5052827;28;20045;-65
2023/09/06 00:19:03;;;;;;;8.27;4.05;;;;;;;22.07;83.71;101727.66;5052609;28;20076;-65
2023/09/06 00:21:52;;;;;;;7.75;4.25;;;;;;;22.07;83.84;101730.44;5052156;28;20051;-64
2023/09/06 00:24:40;;;;;;;9.20;4.43;;;;;;;22.06;83.84;101726.03;5052715;28;20116;-65
2023/09/06 00:27:29;;;;;;;9.43;4.40;;;;;;;22.03;84.12;101728.63;5052570;28;20049;-65
2023/09/06 00:30:20;;;;;;;10.35;4.90;;;;;;;21.96;84.46;101731.91;5052184;28;20087;-63
2023/09/06 00:33:08;;;;;;;10.57;4.25;;;;;;;21.90;85.05;101717.34;5035522;28;20045;-65
2023/09/06 00:35:56;;;;;;;8.13;4.63;;;;;;;21.89;85.15;101720.47;5036893;28;20068;-64
2023/09/06 00:38:44;;;;;;;8.80;4.70;;;;;;;21.82;85.65;101725.66;5040694;28;20052;-64
2023/09/06 00:41:32;;;;;;;8.23;4.30;;;;;;;21.75;86.53;101728.09;5073853;28;20044;-63
2023/09/06 00:44:20;;;;;;;9.32;3.80;;;;;;;21.67;86.96;101730.50;5053552;28;20056;-64
2023/09/06 00:47:09;;;;;;;6.40;4.03;;;;;;;21.61;87.26;101729.00;5039966;28;20647;-64
2023/09/06 00:49:57;;;;;;;8.35;3.90;;;;;;;21.57;87.85;101730.78;5045743;28;20128;-65
2023/09/06 00:52:45;;;;;;;7.00;3.60;;;;;;;21.56;87.95;101745.00;5053922;28;20057;-64
2023/09/06 00:55:37;;;;;;;8.02;4.10;;;;;;;21.57;88.14;101744.66;5026375;28;20052;-65
2023/09/06 00:58:26;;;;;;;8.35;4.00;;;;;;;21.56;87.99;101751.34;5042254;28;20059;-64
2023/09/06 01:01:16;;;;;;;7.00;4.20;;;;;;;21.51;88.34;101745.94;5052046;28;20512;-64
2023/09/06 01:04:04;;;;;;;7.32;4.40;;;;;;;21.47;88.78;101753.25;5056135;28;20053;-65
2023/09/06 01:06:55;;;;;;;8.20;3.90;;;;;;;21.43;88.98;101752.25;5014580;28;20057;-64
2023/09/06 01:09:43;;;;;;;7.47;4.18;;;;;;;21.44;89.23;101753.91;5026900;28;20049;-64
2023/09/06 01:12:34;;;;;;;8.80;4.30;;;;;;;21.45;89.39;101749.97;5054327;28;20554;-65
2023/09/06 01:15:23;;;;;;;9.98;4.38;;;;;;;21.47;89.44;101747.72;5039887;28;20052;-65
2023/09/06 01:18:12;;;;;;;8.82;4.35;;;;;;;21.44;89.27;101749.16;5019491;28;20515;-65
2023/09/06 01:21:06;;;;;;;7.82;4.50;;;;;;;21.38;89.68;101755.13;5034692;28;20052;-65
2023/09/06 01:23:55;;;;;;;9.82;4.50;;;;;;;21.32;90.05;101748.09;5049833;28;20045;-66
2023/09/06 01:26:43;;;;;;;7.07;4.25;;;;;;;21.26;90.44;101741.88;5048061;28;20084;-65
2023/09/06 01:29:31;;;;;;;11.98;4.68;;;;;;;21.24;90.82;101742.19;5044564;28;20057;-64
2023/09/06 01:32:19;;;;;;;8.85;4.43;;;;;;;21.22;91.19;101750.00;5053232;28;20409;-64
2023/09/06 01:35:10;;;;;;;7.88;4.28;;;;;;;21.23;91.01;101751.63;5040283;28;20091;-65
2023/09/06 01:37:58;;;;;;;9.32;4.75;;;;;;;21.24;90.78;101744.97;5052972;28;20041;-64
2023/09/06 01:40:46;;;;;;;8.25;4.75;;;;;;;21.26;90.78;101741.88;5054986;28;20044;-64
2023/09/06 01:43:34;;;;;;;10.15;4.90;;;;;;;21.27;90.49;101743.50;5060732;28;20134;-64
2023/09/06 01:46:23;;;;;;;14.20;5.25;;;;;;;21.27;90.30;101749.88;5033693;28;20056;-65
2023/09/06 01:49:11;;;;;;;7.95;4.68;;;;;;;21.25;90.73;101752.13;5019196;28;20100;-65
2023/09/06 01:52:00;;;;;;;8.52;4.70;;;;;;;21.24;90.70;101747.75;5034320;28;20057;-66
2023/09/06 01:54:49;;;;;;;8.88;5.03;;;;;;;21.25;90.72;101751.31;5034829;28;20102;-66
2023/09/06 01:57:37;;;;;;;9.02;4.80;;;;;;;21.23;90.91;101746.09;5031924;28;20505;-64
2023/09/06 02:00:26;;;;;;;11.20;4.82;;;;;;;21.23;90.76;101745.28;5050202;28;20044;-64
2023/09/06 02:03:16;;;;;;;9.15;5.20;;;;;;;21.21;90.69;101745.63;5051856;28;20521;-65
2023/09/06 02:06:05;;;;;;;10.35;4.97;;;;;;;21.20;91.00;101752.28;5053905;28;20061;-64
2023/09/06 02:08:53;;;;;;;10.90;5.85;;;;;;;21.17;91.17;101743.78;5052520;28;20488;-64
2023/09/06 02:11:41;;;;;;;9.90;5.20;;;;;;;21.14;91.23;101750.78;5052293;28;20103;-64
2023/09/06 02:14:29;;;;;;;10.02;5.05;;;;;;;21.08;91.87;101752.03;5045736;28;20049;-64
2023/09/06 02:17:20;;;;;;;7.97;5.25;;;;;;;21.06;91.81;101748.78;5043660;28;20136;-64
2023/09/06 02:20:13;;;;;;;11.75;5.50;;;;;;;21.05;92.04;101749.91;5052934;28;20041;-64
2023/09/06 02:23:01;;;;;;;11.10;5.22;;;;;;;21.02;91.95;101745.81;5040352;28;20543;-65
2023/09/06 02:25:49;;;;;;;9.32;5.22;;;;;;;21.01;92.16;101751.69;5056272;28;20532;-65
2023/09/06 02:28:37;;;;;;;9.10;5.47;;;;;;;20.99;92.25;101753.94;5053720;28;20118;-64
2023/09/06 02:31:25;;;;;;;8.07;5.38;;;;;;;20.99;92.26;101762.25;5053067;28;20052;-63
2023/09/06 02:34:13;;;;;;;9.80;5.80;;;;;;;20.96;92.12;101765.66;5025761;28;20571;-64
2023/09/06 02:37:02;;;;;;;9.38;5.30;;;;;;;20.88;92.91;101763.63;5052865;28;20191;-64
2023/09/06 02:39:53;;;;;;;19.88;6.13;;;;;;;20.79;93.37;101771.91;5053048;28;20420;-65
2023/09/06 02:42:41;;;;;;;9.88;5.57;;;;;;;20.71;93.83;101775.41;5039456;28;20049;-63
2023/09/06 02:45:36;;;;;;;9.80;5.13;;;;;;;20.60;94.55;101772.06;5046469;28;20505;-63
2023/09/06 02:48:27;;;;;;;9.57;5.30;;;;;;;20.49;95.62;101771.44;5053839;28;20178;-65
2023/09/06 02:51:16;;;;;;;13.00;6.00;;;;;;;20.41;96.14;101772.19;5044256;28;20048;-64
2023/09/06 02:54:04;;;;;;;8.38;5.13;;;;;;;20.36;96.44;101767.59;5052778;28;20455;-64
2023/09/06 02:56:52;;;;;;;9.15;5.35;;;;;;;20.37;96.72;101766.47;5037091;28;20040;-64
2023/09/06 02:59:40;;;;;;;7.65;4.80;;;;;;;20.38;96.64;101767.28;5038376;28;20037;-64
2023/09/06 03:02:28;;;;;;;14.55;5.60;;;;;;;20.40;96.53;101768.59;5052054;28;20128;-65
2023/09/06 03:05:17;;;;;;;12.63;5.80;;;;;;;20.40;96.25;101770.56;5052441;28;20127;-65
2023/09/06 03:08:07;;;;;;;9.55;5.10;;;;;;;20.36;96.52;101775.88;5038649;28;20051;-64
2023/09/06 03:10:55;;;;;;;10.02;5.28;;;;;;;20.34;96.71;101767.06;5037588;28;20408;-64
2023/09/06 03:13:43;;;;;;;11.35;5.82;;;;;;;20.31;96.47;101767.72;5059105;28;20385;-65
2023/09/06 03:16:38;;;;;;;10.52;6.00;;;;;;;20.30;96.53;101771.63;5057418;28;20059;-65
2023/09/06 03:19:33;;;;;;;8.32;5.40;;;;;;;20.31;96.70;101776.00;5043265;28;20045;-65
2023/09/06 03:22:23;;;;;;;10.10;5.20;;;;;;;20.30;96.99;101776.31;5052900;28;20591;-65
2023/09/06 03:25:14;;;;;;;8.65;5.20;;;;;;;20.28;97.14;101767.53;5051356;28;20049;-66
2023/09/06 03:28:04;;;;;;;12.98;5.68;;;;;;;20.22;97.02;101766.78;5056803;28;20412;-64
2023/09/06 03:30:52;;;;;;;11.02;5.13;;;;;;;20.21;97.33;101767.94;5037151;28;20049;-65
2023/09/06 03:33:40;;;;;;;10.32;5.63;;;;;;;20.20;97.20;101767.13;5070999;28;20574;-64
2023/09/06 03:36:29;;;;;;;8.00;5.00;;;;;;;20.24;96.81;101760.97;5057336;28;20040;-64
2023/09/06 03:39:19;;;;;;;9.00;5.22;;;;;;;20.27;96.65;101774.16;5071202;28;20127;-65
2023/09/06 03:42:14;;;;;;;12.70;5.30;;;;;;;20.25;96.18;101776.41;5063087;28;20056;-64
2023/09/06 03:45:03;;;;;;;10.00;4.82;;;;;;;20.16;96.76;101781.88;5058372;28;20125;-64
2023/09/06 03:47:54;;;;;;;10.52;4.90;;;;;;;20.09;97.45;101775.94;5058294;28;20083;-64
2023/09/06 03:50:43;;;;;;;9.55;5.10;;;;;;;20.07;97.65;101779.03;5024495;28;20051;-65
2023/09/06 03:53:33;;;;;;;11.50;5.25;;;;;;;20.06;97.87;101777.41;5065998;28;20056;-63
2023/09/06 03:56:21;;;;;;;12.65;5.28;;;;;;;20.03;98.05;101786.28;5072446;28;20068;-65
2023/09/06 03:59:11;;;;;;;8.65;5.20;;;;;;;19.99;98.11;101775.03;5058148;28;20045;-64
2023/09/06 04:01:59;;;;;;;8.65;5.45;;;;;;;19.93;98.27;101779.03;5050226;28;20055;-65
2023/09/06 04:04:48;;;;;;;11.55;5.85;;;;;;;19.87;98.39;101783.03;5036382;28;20409;-65
2023/09/06 04:07:39;;;;;;;8.48;4.78;;;;;;;19.84;99.06;101780.84;5023583;28;20045;-63
2023/09/06 04:10:35;;;;;;;11.02;5.18;;;;;;;19.83;99.39;101778.44;5035395;28;20519;-64
2023/09/06 04:13:24;;;;;;;9.15;4.78;;;;;;;19.87;99.26;101785.81;5041819;28;20049;-65
2023/09/06 04:16:13;;;;;;;8.50;5.28;;;;;;;19.89;98.96;101788.25;5038731;28;20045;-65
2023/09/06 04:19:05;;;;;;;9.32;5.00;;;;;;;19.88;98.74;101792.97;5042814;28;20615;-65
2023/09/06 04:21:55;;;;;;;8.43;5.28;;;;;;;19.83;98.83;101789.50;5027564;28;20049;-65
2023/09/06 04:24:43;;;;;;;9.50;5.18;;;;;;;19.76;99.38;101795.41;5065622;28;20044;-65
2023/09/06 04:27:31;;;;;;;13.38;5.65;;;;;;;19.68;99.83;101804.44;5073645;28;20079;-64
2023/09/06 04:30:20;;;;;;;8.55;4.55;;;;;;;19.63;100.00;101802.56;5054787;28;20076;-65
2023/09/06 04:33:13;;;;;;;9.82;5.38;;;;;;;19.62;100.00;101802.84;5056152;28;20080;-64
2023/09/06 04:36:08;;;;;;;9.07;5.15;;;;;;;19.63;100.00;101807.28;5028218;28;20057;-67
2023/09/06 04:38:56;;;;;;;9.98;5.35;;;;;;;19.62;100.00;101805.63;5042776;28;20045;-64
2023/09/06 04:41:45;;;;;;;9.27;5.00;;;;;;;19.57;100.00;101804.56;5054037;28;20045;-64
2023/09/06 04:44:33;;;;;;;8.90;5.35;;;;;;;19.54;100.00;101807.97;5045601;28;20037;-64
2023/09/06 04:47:21;;;;;;;7.97;5.40;;;;;;;19.48;100.00;101800.91;5057898;28;20493;-65
2023/09/06 04:50:11;;;;;;;13.20;5.82;;;;;;;19.44;100.00;101799.03;5054349;28;20045;-64
2023/09/06 04:52:59;;;;;;;11.52;6.15;;;;;;;19.40;100.00;101804.34;5039838;28;20053;-63
2023/09/06 04:55:49;;;;;;;12.20;5.75;;;;;;;19.41;100.00;101794.94;5055637;28;20124;-64
2023/09/06 04:58:44;;;;;;;9.40;6.13;;;;;;;19.41;100.00;101803.25;5056393;28;20074;-65
2023/09/06 05:01:32;;;;;;;13.50;5.80;;;;;;;19.40;100.00;101798.81;5076360;28;20044;-65
2023/09/06 05:04:23;;;;;;;7.88;5.30;;;;;;;19.37;100.00;101804.97;5062104;28;20067;-64
2023/09/06 05:07:11;;;;;;;11.02;5.30;;;;;;;19.35;100.00;101809.97;5060195;28;20412;-64
2023/09/06 05:10:00;;;;;;;13.68;5.55;;;;;;;19.39;100.00;101818.50;5038885;28;20497;-65
2023/09/06 05:12:48;;;;;;;10.80;5.50;;;;;;;19.40;100.00;101809.88;5040220;28;20183;-66
2023/09/06 05:15:37;;;;;;;11.25;5.82;;;;;;;19.41;100.00;101817.06;5042897;28;20515;-64
2023/09/06 05:18:27;;;;;;;9.70;5.68;;;;;;;19.45;100.00;101820.84;5040428;28;20068;-63
2023/09/06 05:21:17;;;;;;;9.30;5.18;;;;;;;19.49;100.00;101818.28;5039929;28;20504;-63
2023/09/06 05:24:05;;;;;;;8.18;5.00;;;;;;;19.52;99.79;101824.03;5040904;28;20045;-65
2023/09/06 05:26:53;;;;;;;8.40;5.07;;;;;;;19.54;99.48;101827.31;5054411;28;20051;-64
2023/09/06 05:29:41;;;;;;;10.70;5.47;;;;;;;19.55;99.55;101836.41;5071430;28;20447;-64
2023/09/06 05:32:29;;;;;;;10.85;4.97;;;;;;;19.57;99.59;101834.97;5059546;28;20044;-64
2023/09/06 05:35:17;;;;;;;10.75;5.20;;;;;;;19.58;99.35;101842.16;5070349;28;20037;-63
2023/09/06 05:38:11;;;;;;;8.13;5.30;;;;;;;19.63;99.02;101835.72;5046680;28;20052;-64
2023/09/06 05:41:02;;;;;;;7.93;4.45;;;;;;;19.69;98.56;101844.78;5037438;28;20048;-64
2023/09/06 05:43:55;;;;;;;10.27;5.28;;;;;;;19.72;98.31;101844.16;5058670;28;20044;-64
2023/09/06 05:46:44;;;;;;;9.23;4.68;;;;;;;19.71;98.23;101848.06;5040222;28;20041;-64
2023/09/06 05:49:35;;;;;;;7.30;4.47;;;;;;;19.66;98.63;101848.94;5045879;28;20052;-63
2023/09/06 05:52:24;;;;;;;8.82;4.38;;;;;;;19.65;99.14;101852.00;5045173;28;20056;-64
2023/09/06 05:55:12;;;;;;;11.43;5.15;;;;;;;19.67;99.21;101855.28;5068788;28;20079;-64
2023/09/06 05:58:00;;;;;;;11.43;5.20;;;;;;;19.70;99.03;101860.22;5060211;28;20131;-64
2023/09/06 06:00:53;;;;;;;8.05;4.50;;;;;;;19.69;99.01;101851.13;5071531;28;20048;-65
2023/09/06 06:03:41;;;;;;;9.63;5.10;;;;;;;19.69;98.99;101853.88;5058056;28;20373;-62
2023/09/06 06:06:29;;;;;;;8.95;4.93;;;;;;;19.67;99.23;101853.34;4356486;28;10000712;-63
2023/09/06 06:09:21;;;;;;;10.80;5.10;;;;;;;19.69;99.48;101858.59;5065695;28;20048;-65
2023/09/06 06:12:13;;;;;;;8.70;5.55;;;;;;;19.70;99.29;101857.47;5066580;28;20055;-63
2023/09/06 06:15:01;;;;;;;9.05;5.05;;;;;;;19.73;99.16;101857.69;5057377;28;20122;-64
2023/09/06 06:17:49;;;;;;;13.15;5.03;;;;;;;19.75;98.93;101862.94;5068791;28;20057;-64
2023/09/06 06:20:37;;;;;;;8.30;4.50;;;;;;;19.77;99.06;101863.41;5062891;28;20050;-64
2023/09/06 06:23:31;;;;;;;10.13;5.78;;;;;;;19.81;98.78;101866.41;5068917;28;20400;-64
2023/09/06 06:26:20;;;;;;;8.07;4.35;;;;;;;19.87;98.82;101865.19;5051823;28;20519;-64
2023/09/06 06:29:08;;;;;;;10.57;4.50;;;;;;;19.89;98.42;101866.53;5053568;28;20045;-62
2023/09/06 06:31:56;;;;;;;9.73;4.72;;;;;;;19.93;98.09;101864.78;5043235;28;20036;-64
2023/09/06 06:34:45;;;;;;;10.07;4.97;;;;;;;19.97;97.89;101868.56;5056569;28;20051;-65
2023/09/06 06:37:33;;;;;;;9.45;4.78;;;;;;;20.00;97.71;101872.69;5058659;28;20119;-63
2023/09/06 06:40:22;;;;;;;12.45;4.93;;;;;;;20.02;97.60;101867.66;5059888;28;20041;-63
2023/09/06 06:43:11;;;;;;;7.88;4.53;;;;;;;20.05;97.51;101874.53;5070612;28;20045;-63
2023/09/06 06:46:01;;;;;;;10.15;5.03;;;;;;;20.08;97.33;101868.38;5067179;28;20131;-63
2023/09/06 06:48:49;;;;;;;11.13;4.82;;;;;;;20.12;97.27;101870.22;5054618;28;20063;-63
2023/09/06 06:51:39;;;;;;;13.32;5.68;;;;;;;20.17;97.09;101883.13;5062194;28;20083;-63
2023/09/06 06:54:29;;;;;;;9.27;5.50;;;;;;;20.18;97.05;101879.25;5069781;28;20450;-63
2023/09/06 06:57:18;;;;;;;9.18;4.95;;;;;;;20.20;96.54;101882.50;5050902;28;20072;-63
2023/09/06 07:00:11;;;;;;;12.68;6.45;;;;;;;20.19;96.37;101889.19;5055425;28;20643;-63
2023/09/06 07:02:59;;;;;;;14.30;6.75;;;;;;;20.20;96.58;101883.34;5067741;28;20048;-63
2023/09/06 07:05:47;;;;;;;11.57;5.57;;;;;;;20.23;96.54;101881.91;5055711;28;20044;-63
2023/09/06 07:08:35;;;;;;;14.27;7.13;;;;;;;20.23;96.60;101881.91;5068603;28;20535;-63
2023/09/06 07:11:24;;;;;;;10.90;5.57;;;;;;;20.24;96.74;101883.53;5071661;28;20503;-63
2023/09/06 07:14:12;;;;;;;13.18;6.75;;;;;;;20.26;96.71;101881.28;5070585;28;20063;-62
2023/09/06 07:17:00;;;;;;;15.48;6.65;;;;;;;20.27;97.03;101885.69;5059670;28;20115;-62
2023/09/06 07:19:48;;;;;;;14.73;7.57;;;;;;;20.29;97.24;101883.44;5050398;28;20049;-62
2023/09/06 07:22:36;;;;;;;14.35;7.03;;;;;;;20.31;97.11;101875.66;5069346;28;20047;-64
2023/09/06 07:25:24;;;;;;;11.18;6.45;;;;;;;20.34;97.38;101877.78;5069311;28;20617;-63
2023/09/06 07:28:12;;;;;;;16.63;8.23;;;;;;;20.39;97.44;101877.69;5058235;28;20055;-63
2023/09/06 07:31:00;;;;;;;13.10;6.00;;;;;;;20.43;97.34;101880.66;5064752;28;20075;-64
2023/09/06 07:33:50;;;;;;;14.23;7.22;;;;;;;20.46;97.52;101879.22;5065830;28;20044;-59
2023/09/06 07:36:38;;;;;;;12.23;7.00;;;;;;;20.47;97.25;101881.69;5048029;28;20372;-63
2023/09/06 07:39:27;;;;;;;14.38;6.90;;;;;;;20.50;97.61;101880.25;5049458;28;20129;-63
2023/09/06 07:42:14;;;;;;;19.05;8.57;;;;;;;20.52;97.90;101886.31;5068987;28;20154;-64
2023/09/06 07:45:03;;;;;;;12.20;7.97;;;;;;;20.55;98.31;101885.69;5068931;28;20052;-64
2023/09/06 07:47:51;;;;;;;12.20;6.80;;;;;;;20.60;98.11;101891.13;5071976;28;20055;-63
2023/09/06 07:50:40;;;;;;;11.32;6.50;;;;;;;20.63;97.71;101893.28;5071012;28;20173;-64
2023/09/06 07:53:28;;;;;;;16.80;8.05;;;;;;;20.65;98.21;101891.03;5070310;28;20047;-64
2023/09/06 07:56:16;;;;;;;11.63;6.90;;;;;;;20.69;97.90;101894.81;5066586;28;20041;-63
2023/09/06 07:59:07;;;;;;;12.95;7.10;;;;;;;20.72;97.88;101888.66;5035964;28;20047;-64
2023/09/06 08:01:55;;;;;;;12.38;7.13;;;;;;;20.76;98.53;101895.22;5066233;28;20048;-65
2023/09/06 08:04:43;;;;;;;12.73;7.40;;;;;;;20.80;98.65;101895.41;5041749;28;20504;-64
2023/09/06 08:07:36;;;;;;;11.82;7.25;;;;;;;20.84;98.06;101891.69;5072169;28;20123;-63
2023/09/06 08:10:24;;;;;;;14.93;7.20;;;;;;;20.87;97.58;101889.44;5056909;28;20071;-63
2023/09/06 08:13:12;;;;;;;11.85;6.80;;;;;;;20.92;97.12;101892.09;5050164;28;20041;-64
2023/09/06 08:16:00;;;;;;;11.05;6.95;;;;;;;20.96;96.77;101887.56;5040281;28;20512;-65
2023/09/06 08:18:48;;;;;;;12.20;7.18;;;;;;;21.00;97.02;101891.38;5064966;28;20064;-64
2023/09/06 08:21:37;;;;;;;12.68;7.45;;;;;;;21.01;98.09;101887.44;5069833;28;20036;-64
2023/09/06 08:24:25;;;;;;;13.95;7.40;;;;;;;21.06;98.21;101892.88;5065753;28;20170;-64
2023/09/06 08:27:13;;;;;;;12.82;7.85;;;;;;;21.12;97.26;101891.63;5070147;28;20041;-64
2023/09/06 08:30:02;;;;;;;11.63;6.05;;;;;;;21.15;96.32;101899.31;5064135;28;20055;-64
2023/09/06 08:32:51;;;;;;;16.67;7.63;;;;;;;21.17;96.10;101894.28;5060051;28;20079;-64
2023/09/06 08:35:39;;;;;;;13.07;7.25;;;;;;;21.20;96.27;101895.59;5067125;28;20045;-65
2023/09/06 08:38:27;;;;;;;22.48;8.02;;;;;;;21.25;95.72;101901.81;5069502;28;20047;-64
2023/09/06 08:41:16;;;;;;;14.80;6.75;;;;;;;21.34;95.50;101895.53;5067903;28;20044;-64
2023/09/06 08:44:06;;;;;;;14.25;7.32;;;;;;;21.44;94.22;101893.34;5043232;28;20049;-64
2023/09/06 08:46:54;;;;;;;12.82;6.53;;;;;;;21.48;94.14;101893.56;5054930;28;20048;-64
2023/09/06 08:49:46;;;;;;;11.32;6.20;;;;;;;21.47;94.76;101903.00;5034144;28;20040;-66
2023/09/06 08:52:39;;;;;;;11.35;6.93;;;;;;;21.51;97.31;101900.44;5054810;28;20128;-64
2023/09/06 08:55:28;;;;;;;13.77;7.30;;;;;;;21.57;96.64;101894.41;5068547;28;20041;-63
2023/09/06 08:58:16;;;;;;;13.15;6.20;;;;;;;21.62;94.79;101901.78;5068260;28;20137;-64
2023/09/06 09:01:04;;;;;;;11.02;6.43;;;;;;;21.67;94.68;101901.66;5069060;28;20045;-63
2023/09/06 09:03:53;;;;;;;12.35;6.88;;;;;;;21.68;94.37;101904.13;5072174;28;20420;-64
2023/09/06 09:06:43;;;;;;;12.50;6.65;;;;;;;21.74;94.03;101902.00;5071516;28;20040;-64
2023/09/06 09:09:31;;;;;;;12.55;6.30;;;;;;;21.79;93.41;101898.28;5064527;28;20064;-64
2023/09/06 09:12:24;;;;;;;10.18;6.10;;;;;;;21.85;91.22;101902.56;5053126;28;20142;-64
2023/09/06 09:15:12;;;;;;;10.48;5.43;;;;;;;21.90;90.48;101899.66;5057613;28;20047;-65
2023/09/06 09:18:12;;;;;;;10.70;5.68;;;;;;;21.88;90.44;101899.97;5047685;28;20084;-65
2023/09/06 09:21:03;;;;;;;15.38;5.85;;;;;;;21.95;90.10;101905.06;5049352;28;20160;-65
2023/09/06 09:23:57;;;;;;;12.18;5.47;;;;;;;22.01;90.26;101900.22;5065191;28;20409;-63
2023/09/06 09:26:45;;;;;;;11.30;5.88;;;;;;;22.07;90.58;101898.94;5047762;28;20494;-64
2023/09/06 09:29:33;;;;;;;9.07;5.57;;;;;;;22.11;89.91;101900.75;5041914;28;20055;-65
2023/09/06 09:32:22;;;;;;;13.60;5.57;;;;;;;22.18;89.57;101905.03;5050746;28;20049;-64
2023/09/06 09:35:13;;;;;;;11.52;5.13;;;;;;;22.23;88.97;101896.59;5065010;28;20045;-63
2023/09/06 09:38:02;;;;;;;7.50;4.40;;;;;;;22.21;89.01;101899.66;5052171;28;20068;-65
2023/09/06 09:41:07;;;;;;;8.15;4.65;;;;;;;22.25;88.90;101908.19;5042045;28;20454;-65
2023/09/06 09:44:15;;;;;;;9.25;4.43;;;;;;;22.39;87.36;101902.50;5037804;28;20037;-64
2023/09/06 09:47:14;;;;;;;9.43;4.60;;;;;;;22.40;87.41;101891.06;5032894;28;20050;-64
2023/09/06 09:50:23;;;;;;;12.20;5.25;;;;;;;22.38;86.91;101896.13;5030984;28;20053;-64
2023/09/06 09:53:13;;;;;;;9.88;4.80;;;;;;;22.47;85.46;101896.97;5032203;28;20054;-63
2023/09/06 09:56:09;;;;;;;11.55;5.45;;;;;;;22.49;86.06;101880.81;5040474;28;20508;-62
2023/09/06 09:58:59;;;;;;;12.73;5.05;;;;;;;22.48;87.23;101878.34;5038141;28;20060;-64
2023/09/06 10:01:51;;;;;;;9.40;5.18;;;;;;;22.55;87.51;101882.28;5053174;28;20420;-64
2023/09/06 10:04:42;;;;;;;8.88;4.25;;;;;;;22.63;86.15;101875.09;5053511;28;20132;-64
2023/09/06 10:07:32;;;;;;;10.90;4.78;;;;;;;22.66;86.09;101882.81;5069388;28;20053;-64
2023/09/06 10:10:42;;;;;;;9.52;4.32;;;;;;;22.68;85.27;101879.69;5040173;28;20045;-65
2023/09/06 10:13:30;;;;;;;9.88;4.68;;;;;;;22.78;82.83;101871.06;5047477;28;20120;-65
2023/09/06 10:16:20;;;;;;;9.23;4.38;;;;;;;22.87;82.30;101873.81;5065186;28;20045;-63
2023/09/06 10:19:08;;;;;;;7.63;4.32;;;;;;;22.92;83.04;101880.06;5064233;28;20052;-64
2023/09/06 10:21:56;;;;;;;9.35;4.40;;;;;;;22.94;83.64;101869.41;5062694;28;20045;-65
2023/09/06 10:24:50;;;;;;;9.50;4.40;;;;;;;22.99;80.88;101868.47;5070888;28;20047;-64
2023/09/06 10:27:53;;;;;;;7.85;4.10;;;;;;;23.10;79.48;101868.97;5071600;28;20089;-65
2023/09/06 10:30:48;;;;;;;11.07;4.13;;;;;;;23.11;78.98;101867.81;5071303;28;20396;-65
2023/09/06 10:33:37;;;;;;;12.23;4.68;;;;;;;23.15;77.49;101868.78;4343923;28;10000795;-65
2023/09/06 10:36:29;;;;;;;7.50;3.80;;;;;;;23.14;80.75;101861.59;5051023;28;20565;-64
2023/09/06 10:39:21;;;;;;;7.90;4.13;;;;;;;23.15;79.01;101869.59;5039915;28;20123;-65
2023/09/06 10:42:09;;;;;;;8.25;4.50;;;;;;;23.20;78.64;101871.41;5059509;28;20045;-65
2023/09/06 10:44:58;;;;;;;9.95;4.15;;;;;;;23.21;77.92;101867.50;5064230;28;20057;-65
2023/09/06 10:47:47;;;;;;;9.57;4.15;;;;;;;23.34;75.44;101868.44;5065553;28;20056;-65
2023/09/06 10:50:36;;;;;;;10.75;4.38;;;;;;;23.55;72.33;101860.22;5052160;28;20517;-65
2023/09/06 10:53:24;;;;;;;9.25;4.13;;;;;;;23.67;69.51;101859.50;5048848;28;20049;-64
2023/09/06 10:56:12;;;;;;;6.22;3.80;;;;;;;23.73;68.93;101864.59;5047510;28;20140;-65
2023/09/06 10:59:04;;;;;;;7.80;3.95;;;;;;;23.80;69.75;101858.53;5050548;28;20181;-66
2023/09/06 11:02:09;;;;;;;6.30;3.63;;;;;;;23.79;69.07;101846.59;5053736;28;20076;-66
2023/09/06 11:05:09;;;;;;;7.95;3.75;;;;;;;23.82;68.71;101850.66;5060944;28;20047;-66
2023/09/06 11:07:58;;;;;;;7.85;4.05;;;;;;;23.88;69.82;101857.66;5051228;28;20103;-64
2023/09/06 11:10:46;;;;;;;8.75;4.28;;;;;;;23.83;70.11;101852.28;5066561;28;20040;-65
2023/09/06 11:13:34;;;;;;;8.35;3.88;;;;;;;23.80;72.82;101844.63;5068497;28;20197;-64
2023/09/06 11:16:22;;;;;;;8.18;4.03;;;;;;;23.96;72.78;101847.69;5053038;28;20052;-66
2023/09/06 11:19:11;;;;;;;6.25;3.78;;;;;;;23.99;71.51;101855.34;5054435;28;20440;-65
2023/09/06 11:22:06;;;;;;;12.07;4.10;;;;;;;24.09;70.97;101843.81;5064101;28;20079;-66
2023/09/06 11:24:54;;;;;;;8.60;3.90;;;;;;;24.17;70.38;101850.50;5024630;28;20064;-66
2023/09/06 11:27:42;;;;;;;17.67;4.60;;;;;;;24.15;69.36;101852.78;5048554;28;20097;-66
2023/09/06 11:30:36;;;;;;;10.30;4.22;;;;;;;24.11;68.93;101844.31;5053533;28;20630;-65
2023/09/06 11:33:31;;;;;;;7.18;3.97;;;;;;;24.01;69.81;101859.44;5067427;28;20047;-65
2023/09/06 11:36:21;;;;;;;6.68;3.80;;;;;;;24.02;70.85;101857.47;5051487;28;20128;-65
2023/09/06 11:39:16;;;;;;;7.05;4.07;;;;;;;24.17;69.91;101850.50;5064157;28;20170;-65
2023/09/06 11:42:11;;;;;;;8.02;3.75;;;;;;;24.17;71.79;101839.34;5032741;28;20059;-65
2023/09/06 11:45:00;;;;;;;9.73;4.05;;;;;;;24.16;69.97;101844.13;5056707;28;20052;-65
2023/09/06 11:47:48;;;;;;;7.45;4.05;;;;;;;24.19;69.08;101839.84;5032962;28;20044;-65
2023/09/06 11:50:40;;;;;;;10.30;4.50;;;;;;;24.29;69.25;101841.41;5051773;28;20041;-65
2023/09/06 11:53:30;;;;;;;8.20;3.97;;;;;;;24.33;69.59;101837.63;5054990;28;20060;-65
2023/09/06 11:56:24;;;;;;;9.50;4.15;;;;;;;24.35;68.64;101842.88;5069914;28;20079;-64
2023/09/06 11:59:14;;;;;;;9.48;4.22;;;;;;;24.36;69.75;101833.34;5066491;28;20040;-65
2023/09/06 12:02:05;;;;;;;7.88;4.13;;;;;;;24.50;68.96;101825.59;5055098;28;20511;-65
2023/09/06 12:05:09;;;;;;;11.57;3.97;;;;;;;24.61;67.45;101826.81;5062410;28;20048;-65
2023/09/06 12:08:01;;;;;;;17.73;4.38;;;;;;;24.69;66.12;101827.91;5032173;28;20788;-65
2023/09/06 12:10:53;;;;;;;10.15;3.90;;;;;;;24.73;66.38;101828.88;5047644;28;20475;-64
2023/09/06 12:13:41;;;;;;;10.35;4.18;;;;;;;24.86;65.24;101832.53;5054185;28;20067;-65
2023/09/06 12:16:31;;;;;;;6.82;3.67;;;;;;;24.87;63.69;101823.03;5057484;28;20076;-64
2023/09/06 12:19:19;;;;;;;8.20;4.10;;;;;;;24.94;63.42;101823.25;5056580;28;20106;-65
2023/09/06 12:22:07;;;;;;;7.13;3.60;;;;;;;24.98;62.29;101821.41;5048930;28;20041;-65
2023/09/06 12:24:55;;;;;;;7.68;4.32;;;;;;;24.93;61.92;101821.63;5069012;28;20041;-65
2023/09/06 12:27:47;;;;;;;9.43;3.80;;;;;;;24.92;60.52;101820.03;5053651;28;20122;-66
2023/09/06 12:30:35;;;;;;;8.48;3.80;;;;;;;24.89;60.19;101823.47;5058586;28;20131;-64
2023/09/06 12:33:23;;;;;;;8.35;3.63;;;;;;;25.07;60.49;101816.59;5054888;28;20187;-64
2023/09/06 12:36:13;;;;;;;8.77;3.90;;;;;;;25.21;60.32;101823.88;5057472;28;20133;-65
2023/09/06 12:39:06;;;;;;;9.23;4.07;;;;;;;25.30;59.25;101813.41;5072788;28;20105;-65
2023/09/06 12:41:55;;;;;;;7.82;3.60;;;;;;;25.33;60.24;101812.75;5068724;28;20582;-64
2023/09/06 12:44:44;;;;;;;7.93;3.80;;;;;;;25.36;60.22;101803.69;5064513;28;20045;-65
2023/09/06 12:47:32;;;;;;;9.07;4.57;;;;;;;25.41;59.27;101803.47;5063817;28;20412;-64
2023/09/06 12:50:20;;;;;;;7.57;3.60;;;;;;;25.29;59.74;101806.22;5051877;28;20049;-65
2023/09/06 12:53:09;;;;;;;7.60;4.03;;;;;;;25.31;60.02;101803.91;5067027;28;20500;-65
2023/09/06 12:55:57;;;;;;;7.10;3.72;;;;;;;25.33;59.78;101804.38;5061289;28;20052;-64
2023/09/06 12:58:45;;;;;;;6.97;3.88;;;;;;;25.33;59.25;101803.53;5072427;28;20107;-64
2023/09/06 13:01:33;;;;;;;6.60;3.50;;;;;;;25.27;58.88;101803.78;5070918;28;20044;-66
2023/09/06 13:04:22;;;;;;;5.43;3.50;;;;;;;25.23;59.71;101791.69;5059375;28;20056;-66
2023/09/06 13:07:10;;;;;;;6.82;3.67;;;;;;;25.29;58.35;101795.06;5067319;28;20051;-66